Airfield :
LOGIN :

Register | Disclaimer

   EN    FR    IT 

 










Legend :    VFR   Marginal VFR   IFR   Intensive IFR   Very Intensive IFR
Visi :
Ceiling :
>= 8 km
>= 3000ft
5 to 8 km
1000 to 3000 ft
1500m to 5 km
500 to 1000 ft
800 to 1500m
200 to 500 ft
< 800m
< 200 ft
Symbols :   Thunderstorms  Fog  Heavy snow  Heavy precipitations  Wind > 20 kt
SIGMETs :     Misc.  Thunderstorms  Icing  Turbulence  Mountain Waves  Volcanic Ashes







- Airport Elevation : 325 ft
- IATA code : BES
- Download approach charts


LFRB - Brest

CURRENT METAR :
  • 190300Z AUTO 34003KT 5000 BR FEW002 OVC074 14/13 Q1009 TEMPO 1200 TSRA SCT045CB

EXPIRED METARs :
  • 190230Z AUTO 06003KT 4600 BR BKN003 BKN047 OVC064 14/13 Q1009 TEMPO 1200 TSRA SCT045CB
  • 190200Z AUTO VRB02KT 4100 BR OVC003 14/13 Q1009 TEMPO 1200 TSRA SCT045CB
  • 190130Z AUTO 05004KT 3300 BR VV/// 13/13 Q1008 TEMPO 1200 TSRA SCT045CB
  • 190100Z AUTO 02004KT 350V050 1500 1300 R25/1600N R07/P2000 BR VV/// 13/13 Q1008 TEMPO TSRA SCT045CB
  • 190030Z AUTO 01005KT 340V040 1300 1000 R25/1200U R07/P2000 BR VV/// 13/13 Q1008 TEMPO TSRA SCT045CB

TAF TAF LFRB
Valid from the 19 at 00:00 until the 20 at 06:00 UTC


182300Z 1900/2006 36005KT 0500 FG VV///
PROB40
TEMPO 1900/1906 1200 TSRA SCT045CB
BECMG 1908/1910 9999 SCT018
TEMPO 1900/1912 4000 SHRA
TEMPO 1912/1915 33010KT
ATIS : +33 2 98 32 02 71
No reported NOTAMs for that airfield.
1 SIGMET reported for the Brest FIR (LFRR) :
 
Embedded thunderstorms
LFRR SIGMET 1 VALID 190140/190340 LFPW
LFRR BREST FIR/UIR EMBD TS OBS AT 0130Z WI N4915 W00015 - N4900 W00015 - N4845 W00030 - N4900 W00230 - N4930 W00200 - N4915 W00015 TOP FL310 MOV NE 25KT NC=



MET'MAP, your aeronautical weather chart ! - Copyright ORBIFLY December 2007 - Disclaimer

ORBIFLY MET'MAP TEAM :

Programming & Development : Alexandra Zaïnal
Concept & Development : Baudouin d'Aumeries
Co-Development & Prog : Marc-Olivier Méhu
Technical & hardware support : Manuel Goepfert

Contact : metmap@orbifly.com




SOURCES & CREDITS :

   NOAA